Time;durP1;ratioP1;P1;durP2;ratioP2;P2;SDS_P1;SDS_P2;PMS_P1;PMS_P2;Temp;Humidity;BMP_temperature;BMP_pressure;BME280_temperature;BME280_humidity;BME280_pressure;Samples;Min_cycle;Max_cycle;Signal;HPM_P1;HPM_P2
2023/07/26 00:01:25;;;;;;;2.83;2.60;;;;;;;11.95;100.00;96281.09;4978196;28;20234;-62
2023/07/26 00:03:55;;;;;;;3.43;3.13;;;;;;;12.05;100.00;96280.66;4975431;28;20213;-63
2023/07/26 00:06:22;;;;;;;3.60;3.40;;;;;;;12.09;100.00;96296.94;4975712;28;20229;-65
2023/07/26 00:08:50;;;;;;;3.10;2.83;;;;;;;12.08;100.00;96292.66;4871680;28;20214;-64
2023/07/26 00:11:18;;;;;;;3.67;3.37;;;;;;;12.09;100.00;96287.16;4979506;28;20348;-62
2023/07/26 00:13:45;;;;;;;3.93;3.43;;;;;;;12.10;100.00;96290.63;4973304;28;20232;-63
2023/07/26 00:16:14;;;;;;;3.10;2.90;;;;;;;11.99;100.00;96287.59;4982231;28;20240;-63
2023/07/26 00:18:42;;;;;;;3.50;3.20;;;;;;;12.06;100.00;96292.06;4976178;28;21756;-62
2023/07/26 00:21:09;;;;;;;4.70;2.90;;;;;;;12.08;100.00;96296.16;4977817;28;20700;-64
2023/07/26 00:23:37;;;;;;;3.10;2.70;;;;;;;12.07;100.00;96299.84;4914304;28;20853;-63
2023/07/26 00:26:05;;;;;;;3.43;3.23;;;;;;;12.05;100.00;96290.44;4974288;28;20244;-63
2023/07/26 00:28:32;;;;;;;3.27;3.07;;;;;;;12.09;100.00;96300.44;4970146;28;20233;-63
2023/07/26 00:31:00;;;;;;;3.43;3.23;;;;;;;12.12;100.00;96299.16;4979128;28;20221;-61
2023/07/26 00:33:29;;;;;;;5.87;3.40;;;;;;;12.16;100.00;96309.16;4973721;28;20284;-63
2023/07/26 00:35:57;;;;;;;3.57;3.27;;;;;;;12.09;100.00;96300.44;4978172;28;20210;-63
2023/07/26 00:38:24;;;;;;;3.23;2.93;;;;;;;12.11;100.00;96300.22;4870005;28;20211;-63
2023/07/26 00:40:52;;;;;;;3.73;3.53;;;;;;;12.14;100.00;96307.78;4979975;28;20320;-63
2023/07/26 00:43:20;;;;;;;3.50;3.30;;;;;;;12.13;100.00;96312.25;4947466;28;20226;-62
2023/07/26 00:45:47;;;;;;;3.33;3.03;;;;;;;12.19;100.00;96323.03;4980974;28;20202;-64
2023/07/26 00:48:16;;;;;;;3.97;3.57;;;;;;;12.13;100.00;96320.22;4974757;28;20210;-64
2023/07/26 00:50:46;;;;;;;3.70;3.40;;;;;;;12.17;100.00;96323.25;4978019;28;20308;-62
2023/07/26 00:53:14;;;;;;;3.30;3.10;;;;;;;12.14;100.00;96323.69;4973756;28;20248;-63
2023/07/26 00:55:42;;;;;;;3.73;3.43;;;;;;;12.13;100.00;96322.06;4977046;28;20206;-62
2023/07/26 00:58:10;;;;;;;3.50;3.30;;;;;;;12.02;100.00;96324.38;4912416;28;20246;-63
2023/07/26 01:00:41;;;;;;;3.43;3.23;;;;;;;12.11;100.00;96324.94;4979166;28;20253;-60
2023/07/26 01:03:09;;;;;;;3.70;3.50;;;;;;;12.02;100.00;96323.56;4976257;28;20251;-61
2023/07/26 01:05:42;;;;;;;3.87;3.57;;;;;;;12.08;100.00;96328.00;4976904;28;20202;-62
2023/07/26 01:08:16;;;;;;;3.83;3.63;;;;;;;12.09;100.00;96331.47;4863907;28;20479;-64
2023/07/26 01:10:54;;;;;;;3.97;3.57;;;;;;;12.11;100.00;96332.06;4978049;28;20735;-63
2023/07/26 01:13:25;;;;;;;4.60;3.90;;;;;;;12.07;100.00;96337.00;4975787;28;20685;-63
2023/07/26 01:15:52;;;;;;;3.40;3.20;;;;;;;11.96;100.00;96332.38;4975311;28;20717;-62
2023/07/26 01:18:20;;;;;;;4.07;3.77;;;;;;;11.97;100.00;96334.00;4977118;28;20404;-63
2023/07/26 01:20:48;;;;;;;4.00;3.70;;;;;;;12.05;100.00;96336.41;4976636;28;20731;-64
2023/07/26 01:23:17;;;;;;;3.80;3.60;;;;;;;12.07;100.00;96342.31;4976693;28;20233;-63
2023/07/26 01:25:44;;;;;;;4.00;3.73;;;;;;;11.94;100.00;96350.34;4977642;28;20241;-63
2023/07/26 01:28:12;;;;;;;3.70;3.50;;;;;;;12.00;100.00;96357.44;4904170;28;20656;-64
2023/07/26 01:30:40;;;;;;;3.50;3.30;;;;;;;12.07;100.00;96354.75;4980356;28;20277;-64
2023/07/26 01:33:08;;;;;;;4.30;3.90;;;;;;;11.99;100.00;96355.81;4973553;28;21171;-64
2023/07/26 01:35:36;;;;;;;4.13;3.80;;;;;;;12.01;100.00;96359.91;4977363;28;20772;-64
2023/07/26 01:38:05;;;;;;;4.03;3.73;;;;;;;11.91;100.00;96362.19;4873194;28;20471;-60
2023/07/26 01:40:34;;;;;;;3.60;3.40;;;;;;;11.92;100.00;96360.34;4979165;28;20217;-63
2023/07/26 01:43:02;;;;;;;4.47;4.07;;;;;;;11.90;100.00;96349.94;4973932;28;20272;-63
2023/07/26 01:45:30;;;;;;;3.83;3.53;;;;;;;12.01;100.00;96357.25;4978787;28;20296;-63
2023/07/26 01:47:59;;;;;;;4.47;4.17;;;;;;;11.99;100.00;96355.81;4973608;28;20232;-65
2023/07/26 01:50:26;;;;;;;3.90;3.70;;;;;;;12.02;100.00;96348.25;4970602;28;20230;-62
2023/07/26 01:52:54;;;;;;;4.00;3.70;;;;;;;11.97;100.00;96353.38;4974738;28;20229;-64
2023/07/26 01:55:21;;;;;;;4.10;3.90;;;;;;;12.00;100.00;96357.44;4977687;28;20328;-65
2023/07/26 01:57:50;;;;;;;4.13;3.77;;;;;;;12.02;100.00;96355.44;4977196;28;20678;-64
2023/07/26 02:00:18;;;;;;;3.37;3.17;;;;;;;11.95;100.00;96357.28;4978362;28;20229;-63
2023/07/26 02:02:46;;;;;;;3.53;3.33;;;;;;;11.87;100.00;96367.09;4914718;28;21260;-65
2023/07/26 02:05:15;;;;;;;3.60;3.30;;;;;;;11.79;100.00;96362.03;4979878;28;20209;-63
2023/07/26 02:07:42;;;;;;;3.73;3.53;;;;;;;11.72;100.00;96367.38;4969754;28;20225;-65
2023/07/26 02:10:10;;;;;;;4.17;3.87;;;;;;;11.81;100.00;96375.13;4981654;28;20241;-64
2023/07/26 02:12:38;;;;;;;4.50;3.90;;;;;;;11.80;100.00;96376.13;4898993;28;20834;-63
2023/07/26 02:15:08;;;;;;;4.20;3.90;;;;;;;11.67;100.00;96379.66;4958001;28;20516;-62
2023/07/26 02:17:36;;;;;;;4.10;3.60;;;;;;;11.66;100.00;96378.84;4970491;28;20201;-64
2023/07/26 02:20:04;;;;;;;7.30;4.47;;;;;;;11.61;100.00;96380.50;4977923;28;20861;-64
2023/07/26 02:22:32;;;;;;;3.50;3.30;;;;;;;11.58;100.00;96385.22;4973131;28;20249;-62
2023/07/26 02:25:00;;;;;;;4.00;3.80;;;;;;;11.65;100.00;96392.31;4975222;28;20210;-64
2023/07/26 02:27:27;;;;;;;3.73;3.43;;;;;;;11.61;100.00;96388.47;4973206;28;20202;-66
2023/07/26 02:29:56;;;;;;;3.93;3.73;;;;;;;11.57;100.00;96396.03;4973130;28;20237;-65
2023/07/26 02:32:27;;;;;;;3.60;3.40;;;;;;;11.63;100.00;96397.03;4942445;28;20218;-63
2023/07/26 02:34:55;;;;;;;4.23;3.87;;;;;;;11.59;100.00;96399.28;4953239;28;20206;-64
2023/07/26 02:37:22;;;;;;;5.67;3.90;;;;;;;11.66;100.00;96402.72;4979715;28;20289;-65
2023/07/26 02:39:50;;;;;;;4.00;3.80;;;;;;;11.66;100.00;96408.03;4967735;28;20225;-64
2023/07/26 02:42:18;;;;;;;4.67;4.37;;;;;;;11.67;100.00;96412.31;4967737;28;20233;-65
2023/07/26 02:44:46;;;;;;;4.57;4.23;;;;;;;11.64;100.00;96409.28;4973411;28;20275;-65
2023/07/26 02:47:14;;;;;;;4.03;3.83;;;;;;;11.61;100.00;96420.31;4938573;28;20260;-65
2023/07/26 02:49:43;;;;;;;3.80;3.60;;;;;;;11.55;100.00;96420.13;4904944;28;20669;-64
2023/07/26 02:52:11;;;;;;;4.00;3.80;;;;;;;11.62;100.00;96425.38;4973026;28;20221;-66
2023/07/26 02:54:39;;;;;;;4.50;4.20;;;;;;;11.67;100.00;96433.53;4975993;28;20197;-64
2023/07/26 02:57:07;;;;;;;4.37;4.10;;;;;;;11.62;100.00;96430.69;4974851;28;20206;-64
2023/07/26 02:59:34;;;;;;;4.80;4.30;;;;;;;11.67;100.00;96422.13;4973076;28;20303;-64
2023/07/26 03:02:02;;;;;;;5.63;4.43;;;;;;;11.67;100.00;96435.38;4976213;28;20251;-64
2023/07/26 03:04:30;;;;;;;4.47;4.17;;;;;;;11.64;100.00;96441.91;4913317;28;20665;-64
2023/07/26 03:06:59;;;;;;;5.77;5.37;;;;;;;11.61;100.00;96438.88;4971819;28;20680;-64
2023/07/26 03:09:26;;;;;;;6.43;5.77;;;;;;;11.56;100.00;96431.53;4975176;28;20678;-65
2023/07/26 03:11:54;;;;;;;5.37;4.97;;;;;;;11.60;100.00;96431.94;4975526;28;20240;-65
2023/07/26 03:14:22;;;;;;;5.10;4.80;;;;;;;11.71;100.00;96436.59;4971731;28;20283;-65
2023/07/26 03:16:49;;;;;;;5.13;4.73;;;;;;;11.65;100.00;96440.09;4976305;28;20206;-64
2023/07/26 03:19:17;;;;;;;4.80;4.40;;;;;;;11.66;100.00;96452.31;4870974;28;20305;-64
2023/07/26 03:21:45;;;;;;;4.73;4.33;;;;;;;11.56;100.00;96453.59;4972751;28;20313;-65
2023/07/26 03:24:14;;;;;;;5.47;4.37;;;;;;;11.54;100.00;96447.66;4973870;28;20202;-64
2023/07/26 03:26:42;;;;;;;5.30;4.90;;;;;;;11.57;100.00;96449.91;4975307;28;20239;-64
2023/07/26 03:29:09;;;;;;;5.10;4.77;;;;;;;11.67;100.00;96453.97;4978489;28;20611;-64
2023/07/26 03:31:37;;;;;;;4.60;4.30;;;;;;;11.69;100.00;96452.72;4977777;28;20233;-63
2023/07/26 03:34:05;;;;;;;5.47;5.07;;;;;;;11.71;100.00;96457.81;4849979;28;20221;-65
2023/07/26 03:36:32;;;;;;;5.00;4.70;;;;;;;11.61;100.00;96454.78;4976357;28;20206;-64
2023/07/26 03:39:00;;;;;;;5.17;4.67;;;;;;;11.66;100.00;96453.13;4978984;28;20703;-65
2023/07/26 03:41:29;;;;;;;5.27;4.83;;;;;;;11.60;100.00;96455.81;4979160;28;20327;-64
2023/07/26 03:43:57;;;;;;;4.83;4.53;;;;;;;11.63;100.00;96452.75;4980552;28;20723;-65
2023/07/26 03:46:25;;;;;;;5.37;4.90;;;;;;;11.62;100.00;96459.06;4977955;28;20333;-64
2023/07/26 03:48:52;;;;;;;5.90;5.33;;;;;;;11.52;100.00;96462.16;4872296;28;21025;-63
2023/07/26 03:51:20;;;;;;;6.57;5.27;;;;;;;11.65;100.00;96467.41;4974858;28;20260;-65
2023/07/26 03:53:48;;;;;;;5.23;4.83;;;;;;;11.68;100.00;96461.69;4978804;28;20827;-65
2023/07/26 03:56:16;;;;;;;7.00;6.30;;;;;;;11.67;100.00;96459.25;4979853;28;20673;-65
2023/07/26 03:58:45;;;;;;;6.47;5.97;;;;;;;11.60;100.00;96447.84;4976887;28;20206;-65
2023/07/26 04:01:13;;;;;;;6.23;4.87;;;;;;;11.68;100.00;96469.66;4982087;28;20828;-65
2023/07/26 04:03:42;;;;;;;5.90;5.33;;;;;;;11.71;100.00;96481.69;4913157;28;20351;-65
2023/07/26 04:06:12;;;;;;;6.60;5.87;;;;;;;11.77;100.00;96480.06;4978824;28;20577;-65
2023/07/26 04:08:40;;;;;;;7.00;6.40;;;;;;;11.78;100.00;96482.50;4977653;28;20804;-64
2023/07/26 04:11:08;;;;;;;6.03;5.53;;;;;;;11.68;100.00;96479.47;4975362;28;20932;-64
2023/07/26 04:13:36;;;;;;;5.77;5.33;;;;;;;11.69;100.00;96479.25;4979383;28;20254;-63
2023/07/26 04:16:14;;;;;;;6.47;5.87;;;;;;;11.84;100.00;96491.47;4977808;28;20248;-63
2023/07/26 04:18:42;;;;;;;5.20;4.80;;;;;;;11.92;100.00;96493.88;4976691;28;20197;-62
2023/07/26 04:21:12;;;;;;;6.17;5.70;;;;;;;11.82;100.00;96496.16;4975767;28;20299;-64
2023/07/26 04:23:40;;;;;;;6.30;5.70;;;;;;;11.98;100.00;96493.03;4874923;28;22334;-64
2023/07/26 04:26:08;;;;;;;6.43;5.73;;;;;;;12.08;100.00;96497.94;4977689;28;20554;-62
2023/07/26 04:28:36;;;;;;;6.23;5.70;;;;;;;12.08;100.00;96499.78;4920731;28;20219;-65
2023/07/26 04:31:03;;;;;;;6.00;5.50;;;;;;;12.09;100.00;96498.75;4978941;28;20248;-64
2023/07/26 04:33:33;;;;;;;6.57;5.97;;;;;;;12.10;100.00;96503.84;4973970;28;20209;-63
2023/07/26 04:36:00;;;;;;;5.33;4.93;;;;;;;12.15;100.00;96503.25;4974800;28;20743;-64
2023/07/26 04:38:28;;;;;;;5.90;4.90;;;;;;;12.13;100.00;96500.78;4913094;28;20225;-64
2023/07/26 04:40:56;;;;;;;6.17;5.57;;;;;;;12.15;100.00;96505.91;4978087;28;20312;-63
2023/07/26 04:43:23;;;;;;;5.90;5.53;;;;;;;12.13;100.00;96511.41;4973459;28;20312;-64
2023/07/26 04:45:52;;;;;;;5.67;5.17;;;;;;;12.16;100.00;96510.19;4980454;28;20672;-62
2023/07/26 04:48:21;;;;;;;6.10;5.57;;;;;;;12.13;100.00;96506.09;4976097;28;20232;-64
2023/07/26 04:50:50;;;;;;;5.80;5.30;;;;;;;12.16;100.00;96515.50;4979432;28;20280;-64
2023/07/26 04:53:18;;;;;;;6.80;6.10;;;;;;;12.28;100.00;96519.09;4973233;28;20264;-64
2023/07/26 04:55:51;;;;;;;5.80;5.37;;;;;;;12.22;100.00;96519.97;4979224;28;20926;-63
2023/07/26 04:58:19;;;;;;;5.73;5.33;;;;;;;12.25;100.00;96526.66;4887522;28;20217;-63
2023/07/26 05:00:46;;;;;;;5.90;5.50;;;;;;;12.32;100.00;96530.13;4978648;28;20320;-63
2023/07/26 05:03:14;;;;;;;6.70;5.13;;;;;;;12.33;100.00;96537.09;4975711;28;20230;-64
2023/07/26 05:05:42;;;;;;;5.37;4.97;;;;;;;12.28;100.00;96537.69;4975205;28;20562;-64
2023/07/26 05:08:11;;;;;;;5.10;4.77;;;;;;;12.14;100.00;96544.09;4911997;28;20917;-64
2023/07/26 05:10:39;;;;;;;5.43;5.13;;;;;;;12.15;100.00;96540.41;4979265;28;20433;-64
2023/07/26 05:13:06;;;;;;;5.47;5.07;;;;;;;12.20;100.00;96540.59;4973269;28;20377;-64
2023/07/26 05:15:34;;;;;;;7.30;5.77;;;;;;;12.27;100.00;96546.69;4976666;28;20202;-64
2023/07/26 05:18:02;;;;;;;5.57;5.17;;;;;;;12.29;100.00;96546.47;4974798;28;20325;-63
2023/07/26 05:20:29;;;;;;;6.40;5.90;;;;;;;12.38;100.00;96547.88;4977220;28;20240;-64
2023/07/26 05:22:57;;;;;;;6.00;5.50;;;;;;;12.44;100.00;96546.22;4972266;28;20280;-64
2023/07/26 05:25:26;;;;;;;5.70;5.30;;;;;;;12.38;100.00;96550.53;4983096;28;20311;-65
2023/07/26 05:27:55;;;;;;;5.50;5.10;;;;;;;12.51;100.00;96548.84;4881251;28;20214;-64
2023/07/26 05:30:22;;;;;;;5.83;5.33;;;;;;;12.55;100.00;96544.72;4912538;28;21288;-65
2023/07/26 05:32:50;;;;;;;5.40;5.10;;;;;;;12.57;100.00;96554.13;4978304;28;20198;-65
2023/07/26 05:35:18;;;;;;;5.33;4.90;;;;;;;12.50;100.00;96550.69;4972874;28;20444;-63
2023/07/26 05:37:46;;;;;;;5.70;5.30;;;;;;;12.59;100.00;96559.22;4906512;28;20285;-64
2023/07/26 05:40:13;;;;;;;5.77;5.27;;;;;;;12.54;100.00;96559.88;4975795;28;20241;-64
2023/07/26 05:42:42;;;;;;;5.50;4.77;;;;;;;12.69;100.00;96567.56;4973486;28;20663;-64
2023/07/26 05:45:10;;;;;;;6.07;4.97;;;;;;;12.73;100.00;96567.94;4973868;28;20206;-63
2023/07/26 05:47:38;;;;;;;5.53;5.13;;;;;;;12.95;100.00;96568.44;4975639;28;20298;-64
2023/07/26 05:50:07;;;;;;;5.77;5.27;;;;;;;13.02;100.00;96566.53;4976806;28;20210;-64
2023/07/26 05:52:34;;;;;;;6.47;5.27;;;;;;;13.11;100.00;96559.13;4972472;28;20205;-64
2023/07/26 05:55:02;;;;;;;5.00;4.70;;;;;;;13.08;100.00;96566.72;4975792;28;20289;-64
2023/07/26 05:57:30;;;;;;;5.30;4.73;;;;;;;12.99;100.00;96569.63;4972387;28;20256;-64
2023/07/26 05:59:59;;;;;;;5.20;4.57;;;;;;;12.85;100.00;96568.88;4980682;28;20210;-64
2023/07/26 06:02:26;;;;;;;4.93;4.50;;;;;;;12.88;100.00;96565.81;4870649;28;20228;-64
2023/07/26 06:04:54;;;;;;;6.20;4.30;;;;;;;13.04;100.00;96566.34;4979623;28;20222;-65
2023/07/26 06:07:22;;;;;;;5.60;5.07;;;;;;;13.03;100.00;96568.16;4969360;28;20292;-63
2023/07/26 06:09:49;;;;;;;4.80;4.40;;;;;;;13.14;100.00;96571.19;4979679;28;20301;-64
2023/07/26 06:12:17;;;;;;;5.83;4.07;;;;;;;13.13;100.00;96567.69;4910600;28;20394;-64
2023/07/26 06:14:44;;;;;;;6.10;4.77;;;;;;;13.22;100.00;96572.75;4979302;28;20237;-64
2023/07/26 06:17:13;;;;;;;4.83;4.20;;;;;;;13.35;100.00;96582.47;4975565;28;20452;-65
2023/07/26 06:19:41;;;;;;;5.00;4.60;;;;;;;13.40;100.00;96580.81;4979086;28;20256;-64
2023/07/26 06:22:09;;;;;;;4.60;4.20;;;;;;;13.26;100.00;96587.28;4972550;28;20294;-64
2023/07/26 06:24:36;;;;;;;4.77;4.37;;;;;;;13.24;100.00;96595.44;4976930;28;20316;-63
2023/07/26 06:27:05;;;;;;;5.17;4.13;;;;;;;13.15;100.00;96591.44;4970826;28;20206;-63
2023/07/26 06:29:33;;;;;;;4.63;4.23;;;;;;;13.21;100.00;96592.41;4978492;28;20221;-65
2023/07/26 06:32:01;;;;;;;4.57;4.27;;;;;;;13.20;100.00;96593.44;4865266;28;22201;-64
2023/07/26 06:34:30;;;;;;;4.70;4.40;;;;;;;13.14;100.00;96589.81;4980180;28;20343;-65
2023/07/26 06:36:58;;;;;;;5.10;4.73;;;;;;;13.09;100.00;96593.09;4973871;28;20224;-62
2023/07/26 06:39:27;;;;;;;4.23;3.90;;;;;;;13.12;100.00;96592.66;4978853;28;20205;-64
2023/07/26 06:41:55;;;;;;;4.23;3.93;;;;;;;13.23;100.00;96591.16;4970242;28;20229;-64
2023/07/26 06:44:22;;;;;;;6.27;4.80;;;;;;;13.44;100.00;96598.00;4976576;28;20320;-64
2023/07/26 06:46:50;;;;;;;4.90;4.50;;;;;;;13.67;100.00;96590.44;4916819;28;21367;-65
2023/07/26 06:49:18;;;;;;;4.83;4.30;;;;;;;14.05;100.00;96602.78;4975002;28;20302;-64
2023/07/26 06:51:47;;;;;;;4.37;3.97;;;;;;;14.24;100.00;96597.50;4974745;28;20559;-64
2023/07/26 06:54:15;;;;;;;4.53;4.17;;;;;;;14.58;100.00;96608.56;4977175;28;20272;-64
2023/07/26 06:56:42;;;;;;;4.07;3.63;;;;;;;14.74;100.00;96602.66;4969855;28;20297;-64
2023/07/26 06:59:12;;;;;;;4.33;3.57;;;;;;;14.46;100.00;96595.19;4977357;28;20256;-64
2023/07/26 07:01:40;;;;;;;3.70;3.50;;;;;;;14.65;100.00;96603.97;4977585;28;20478;-64
2023/07/26 07:04:07;;;;;;;3.40;3.10;;;;;;;14.54;100.00;96607.38;4981137;28;20281;-65
2023/07/26 07:06:42;;;;;;;4.37;3.47;;;;;;;14.27;100.00;96602.38;4904781;28;20900;-62
2023/07/26 07:09:12;;;;;;;3.90;3.60;;;;;;;14.73;100.00;96610.88;4957877;28;20205;-62
2023/07/26 07:11:39;;;;;;;3.77;3.43;;;;;;;15.37;100.00;96617.63;4980136;28;20659;-64
2023/07/26 07:14:07;;;;;;;3.53;3.13;;;;;;;15.55;100.00;96619.38;4981645;28;20202;-64
2023/07/26 07:16:38;;;;;;;3.47;3.17;;;;;;;15.44;100.00;96612.97;4936996;28;20237;-64
2023/07/26 07:19:06;;;;;;;6.23;3.63;;;;;;;15.39;100.00;96619.00;4965660;28;20221;-65
2023/07/26 07:21:34;;;;;;;4.43;3.60;;;;;;;15.37;100.00;96610.41;4978664;28;20218;-66
2023/07/26 07:24:04;;;;;;;2.97;2.77;;;;;;;15.73;100.00;96613.16;4979875;28;20226;-64
2023/07/26 07:26:33;;;;;;;3.90;3.70;;;;;;;16.14;100.00;96614.09;4980287;28;20237;-64
2023/07/26 07:29:01;;;;;;;3.30;3.10;;;;;;;16.34;100.00;96612.91;4980645;28;20205;-64
2023/07/26 07:31:28;;;;;;;3.67;3.30;;;;;;;16.15;100.00;96615.72;4981736;28;20226;-65
2023/07/26 07:33:56;;;;;;;5.43;3.50;;;;;;;15.74;100.00;96610.22;4977083;28;20317;-63
2023/07/26 07:36:23;;;;;;;5.73;3.90;;;;;;;15.42;100.00;96599.06;4978575;28;20235;-64
2023/07/26 07:38:51;;;;;;;5.83;4.17;;;;;;;16.19;100.00;96616.06;4981579;28;20743;-62
2023/07/26 07:41:19;;;;;;;3.10;2.87;;;;;;;16.00;100.00;96612.69;4955555;28;20312;-63
2023/07/26 07:43:49;;;;;;;6.10;3.53;;;;;;;16.79;100.00;96614.09;4914862;28;20833;-63
2023/07/26 07:46:16;;;;;;;4.43;4.00;;;;;;;16.57;100.00;96611.25;4978736;28;20832;-64
2023/07/26 07:48:44;;;;;;;3.27;3.00;;;;;;;16.27;100.00;96614.91;4978410;28;20508;-64
2023/07/26 07:51:12;;;;;;;3.50;3.20;;;;;;;16.25;100.00;96617.00;4978407;28;20221;-62
2023/07/26 07:53:40;;;;;;;4.83;3.40;;;;;;;16.21;100.00;96619.31;4919955;28;20214;-64
2023/07/26 07:56:07;;;;;;;4.53;3.47;;;;;;;16.15;100.00;96621.06;4982307;28;20248;-63
2023/07/26 07:58:35;;;;;;;3.67;3.47;;;;;;;16.36;100.00;96618.81;4975882;28;20201;-62
2023/07/26 08:01:04;;;;;;;4.83;3.70;;;;;;;16.32;100.00;96618.50;4978287;28;20273;-64
2023/07/26 08:03:32;;;;;;;4.13;3.80;;;;;;;16.82;100.00;96618.13;4977735;28;20209;-64
2023/07/26 08:05:59;;;;;;;3.53;3.20;;;;;;;16.49;100.00;96618.59;4980382;28;20225;-63
2023/07/26 08:08:27;;;;;;;4.13;3.73;;;;;;;16.64;100.00;96617.25;4978124;28;20275;-63
2023/07/26 08:10:55;;;;;;;2.97;2.77;;;;;;;16.56;100.00;96610.41;4984371;28;20286;-62
2023/07/26 08:13:22;;;;;;;4.00;3.10;;;;;;;16.81;100.00;96616.50;4873504;28;20278;-64
2023/07/26 08:15:50;;;;;;;4.53;3.43;;;;;;;16.96;100.00;96614.13;4978885;28;20206;-63
2023/07/26 08:18:19;;;;;;;3.00;2.80;;;;;;;17.10;100.00;96617.38;4980081;28;20292;-64
2023/07/26 08:20:47;;;;;;;4.17;3.20;;;;;;;17.39;100.00;96622.69;4980871;28;20313;-64
2023/07/26 08:23:15;;;;;;;7.03;2.80;;;;;;;16.81;100.00;96621.84;4920156;28;20213;-63
2023/07/26 08:25:43;;;;;;;3.40;2.90;;;;;;;17.17;100.00;96625.22;4980575;28;20225;-63
2023/07/26 08:28:11;;;;;;;3.23;2.93;;;;;;;17.07;100.00;96620.53;4974733;28;20205;-63
2023/07/26 08:30:39;;;;;;;3.80;2.60;;;;;;;17.46;100.00;96627.88;4980208;28;20234;-63
2023/07/26 08:33:07;;;;;;;3.00;2.77;;;;;;;17.23;100.00;96628.81;4976544;28;20208;-63
2023/07/26 08:35:36;;;;;;;3.33;2.50;;;;;;;16.88;100.00;96622.56;4977389;28;20572;-63
2023/07/26 08:38:05;;;;;;;3.03;2.60;;;;;;;16.54;100.00;96623.22;4978292;28;20196;-62
2023/07/26 08:40:34;;;;;;;3.50;3.10;;;;;;;16.71;100.00;96620.63;4979300;28;20217;-64
2023/07/26 08:43:04;;;;;;;3.03;2.83;;;;;;;16.28;100.00;96621.88;4973789;28;20202;-64
2023/07/26 08:45:32;;;;;;;5.07;2.80;;;;;;;16.31;100.00;96630.25;4980844;28;20632;-64
2023/07/26 08:48:01;;;;;;;2.70;2.50;;;;;;;16.29;100.00;96629.66;4876252;28;20209;-63
2023/07/26 08:50:29;;;;;;;3.27;2.93;;;;;;;16.56;100.00;96633.69;4981356;28;20225;-63
2023/07/26 08:52:58;;;;;;;5.33;2.60;;;;;;;16.51;100.00;96626.34;4980692;28;20230;-63
2023/07/26 08:55:26;;;;;;;2.67;2.47;;;;;;;16.66;100.00;96628.53;4978606;28;20477;-63
2023/07/26 08:57:54;;;;;;;2.50;2.30;;;;;;;16.46;100.00;96627.06;4914564;28;20867;-63
2023/07/26 09:00:21;;;;;;;6.33;2.30;;;;;;;16.75;100.00;96613.72;4979093;28;20302;-63
2023/07/26 09:02:49;;;;;;;2.57;2.37;;;;;;;17.34;100.00;96619.91;4978377;28;20214;-64
2023/07/26 09:05:17;;;;;;;3.53;2.23;;;;;;;17.69;100.00;96616.22;4976395;28;20228;-63
2023/07/26 09:07:45;;;;;;;4.20;2.47;;;;;;;17.23;100.00;96624.28;4975164;28;20832;-62
2023/07/26 09:10:14;;;;;;;2.07;1.87;;;;;;;17.29;100.00;96617.16;4980218;28;20217;-63
2023/07/26 09:12:42;;;;;;;2.90;2.30;;;;;;;17.19;100.00;96621.28;4972873;28;20234;-63
2023/07/26 09:15:10;;;;;;;3.87;2.10;;;;;;;17.28;100.00;96619.03;4979526;28;20233;-63
2023/07/26 09:17:39;;;;;;;2.30;2.10;;;;;;;17.33;100.00;96608.41;4980613;28;20315;-63
2023/07/26 09:20:20;;;;;;;2.83;2.27;;;;;;;17.65;100.00;96588.28;4978638;28;20292;-63
2023/07/26 09:22:47;;;;;;;2.30;2.10;;;;;;;17.41;100.00;96599.16;4872286;28;20218;-65
2023/07/26 09:25:30;;;;;;;3.33;2.40;;;;;;;17.33;100.00;96608.41;4979254;28;20804;-64
2023/07/26 09:27:59;;;;;;;4.27;2.17;;;;;;;17.43;100.00;96604.28;4913435;28;20220;-60
2023/07/26 09:30:27;;;;;;;2.17;2.07;;;;;;;18.28;100.00;96600.72;4935654;28;20769;-63
2023/07/26 09:32:56;;;;;;;15.90;4.77;;;;;;;18.61;99.60;96607.06;4924576;28;20205;-62
2023/07/26 09:35:24;;;;;;;2.67;2.17;;;;;;;18.98;97.37;96609.13;4977471;28;20317;-64
2023/07/26 09:37:51;;;;;;;2.10;1.90;;;;;;;18.40;89.67;96600.63;4975267;28;20752;-64
2023/07/26 09:40:32;;;;;;;5.27;2.33;;;;;;;17.94;90.15;96598.91;4980225;28;20205;-64
2023/07/26 09:43:05;;;;;;;2.73;2.20;;;;;;;18.16;87.47;96598.16;4925070;28;20292;-63
2023/07/26 09:45:33;;;;;;;3.20;1.67;;;;;;;18.27;86.69;96602.63;4976974;28;20221;-63
2023/07/26 09:48:06;;;;;;;1.73;1.63;;;;;;;18.29;90.97;96592.47;4977514;28;20642;-63
2023/07/26 09:50:50;;;;;;;1.90;1.83;;;;;;;18.02;89.02;96593.16;4978605;28;20308;-64
2023/07/26 09:53:20;;;;;;;1.90;1.90;;;;;;;17.72;89.34;96588.94;4878221;28;20214;-63
2023/07/26 09:55:50;;;;;;;2.03;1.73;;;;;;;18.06;91.08;96593.50;4973571;28;20198;-62
2023/07/26 09:58:22;;;;;;;1.97;1.87;;;;;;;17.87;88.42;96601.75;4969377;28;20286;-62
2023/07/26 10:00:51;;;;;;;1.90;1.43;;;;;;;17.61;90.80;96585.28;4907046;28;20264;-62
2023/07/26 10:03:20;;;;;;;2.40;2.23;;;;;;;17.52;93.12;96584.06;4977808;28;20197;-65
2023/07/26 10:05:48;;;;;;;2.30;2.10;;;;;;;17.94;91.22;96591.66;4972570;28;20232;-65
2023/07/26 10:08:16;;;;;;;3.67;2.20;;;;;;;17.84;91.97;96575.44;4899334;28;20719;-62
2023/07/26 10:10:45;;;;;;;2.20;2.10;;;;;;;18.30;92.60;96577.16;4978897;28;20320;-66
2023/07/26 10:13:14;;;;;;;1.77;1.67;;;;;;;18.29;79.47;96560.28;4919273;28;20305;-64
2023/07/26 10:15:46;;;;;;;2.80;2.50;;;;;;;18.62;78.62;96582.66;4974787;28;20207;-66
2023/07/26 10:18:15;;;;;;;2.47;2.30;;;;;;;18.71;77.99;96572.28;4910365;28;20711;-64
2023/07/26 10:20:44;;;;;;;2.00;1.90;;;;;;;18.71;73.91;96576.84;4976792;28;20221;-65
2023/07/26 10:23:12;;;;;;;2.47;2.20;;;;;;;18.60;82.87;96566.00;4868428;28;20217;-65
2023/07/26 10:25:41;;;;;;;2.07;1.97;;;;;;;18.67;77.97;96573.84;4981275;28;20226;-64
2023/07/26 10:28:09;;;;;;;3.77;1.83;;;;;;;17.93;78.25;96573.97;4971437;28;20300;-64
2023/07/26 10:30:39;;;;;;;1.90;1.80;;;;;;;18.32;83.85;96575.88;4970880;28;20764;-65
2023/07/26 10:33:12;;;;;;;1.97;1.87;;;;;;;18.61;78.60;96574.88;4913943;28;20218;-63
2023/07/26 10:35:41;;;;;;;1.87;1.77;;;;;;;19.14;77.00;96579.75;4976866;28;20205;-62
2023/07/26 10:38:11;;;;;;;5.23;2.47;;;;;;;18.80;69.88;96576.16;4969935;28;20209;-63
2023/07/26 10:40:40;;;;;;;2.93;2.13;;;;;;;18.33;69.29;96556.03;4917971;28;20237;-62
2023/07/26 10:43:40;;;;;;;3.13;2.23;;;;;;;17.95;78.52;96573.72;4970252;28;20213;-62
2023/07/26 10:46:11;;;;;;;3.73;2.10;;;;;;;17.63;84.89;96574.34;4925228;28;20384;-65
2023/07/26 10:48:40;;;;;;;3.03;2.73;;;;;;;16.86;100.00;96579.19;4976933;28;20202;-66
2023/07/26 10:51:25;;;;;;;2.77;2.57;;;;;;;15.96;100.00;96584.81;4913155;28;20792;-65
2023/07/26 10:53:54;;;;;;;3.23;2.70;;;;;;;15.33;100.00;96587.88;4980040;28;20209;-65
2023/07/26 10:56:24;;;;;;;3.23;2.77;;;;;;;14.97;100.00;96597.63;4863128;28;20218;-65
2023/07/26 10:58:54;;;;;;;3.10;2.90;;;;;;;14.96;100.00;96594.16;4975989;28;20233;-65
2023/07/26 11:01:39;;;;;;;4.77;3.40;;;;;;;15.30;100.00;96591.81;4973804;28;20233;-64
2023/07/26 11:04:11;;;;;;;3.13;2.83;;;;;;;15.85;100.00;96589.09;4977001;28;20205;-66
2023/07/26 11:06:49;;;;;;;3.30;3.00;;;;;;;16.50;100.00;96584.63;4909183;28;20299;-64
2023/07/26 11:09:24;;;;;;;2.67;2.47;;;;;;;17.27;100.00;96587.97;4977035;28;20289;-66
2023/07/26 11:11:56;;;;;;;2.50;2.40;;;;;;;17.32;100.00;96582.69;4971826;28;20704;-66
2023/07/26 11:14:24;;;;;;;2.13;1.93;;;;;;;17.29;100.00;96580.50;4976767;28;20201;-66
2023/07/26 11:16:54;;;;;;;2.50;2.27;;;;;;;17.28;100.00;96573.53;4972244;28;20313;-66
2023/07/26 11:19:25;;;;;;;2.30;2.20;;;;;;;17.81;100.00;96581.31;4972416;28;20220;-65
2023/07/26 11:21:53;;;;;;;2.17;2.07;;;;;;;18.03;100.00;96580.56;4909560;28;20274;-65
2023/07/26 11:24:27;;;;;;;2.23;1.83;;;;;;;18.57;100.00;96585.31;4977871;28;20284;-66
2023/07/26 11:26:55;;;;;;;2.50;2.40;;;;;;;18.59;95.19;96588.53;4968319;28;20224;-65
2023/07/26 11:29:23;;;;;;;2.73;2.60;;;;;;;18.44;93.30;96589.16;4977154;28;20297;-65
2023/07/26 11:31:50;;;;;;;2.00;1.90;;;;;;;18.31;99.51;96586.81;4871269;28;20222;-64
2023/07/26 11:34:20;;;;;;;2.33;1.93;;;;;;;17.97;100.00;96592.22;4975544;28;20217;-66